sensor_id;sensor_type;location;lat;lon;timestamp;P1;durP1;ratioP1;P2;durP2;ratioP2
14774;SDS011;7479;47.042;15.160;2023-02-28T08:52:03;12.97;;;8.57;;
14774;SDS011;7479;47.042;15.160;2023-02-28T09:03:17;12.23;;;9.00;;
14774;SDS011;7479;47.042;15.160;2023-02-28T09:13:13;12.13;;;9.00;;
14774;SDS011;7479;47.042;15.160;2023-02-28T09:18:07;13.53;;;9.40;;
14774;SDS011;7479;47.042;15.160;2023-02-28T09:23:00;13.03;;;9.43;;
14774;SDS011;7479;47.042;15.160;2023-02-28T09:27:54;11.97;;;8.77;;
14774;SDS011;7479;47.042;15.160;2023-02-28T09:32:49;14.87;;;8.90;;
14774;SDS011;7479;47.042;15.160;2023-02-28T09:37:43;10.17;;;8.70;;
14774;SDS011;7479;47.042;15.160;2023-02-28T09:42:38;12.23;;;8.47;;
14774;SDS011;7479;47.042;15.160;2023-02-28T09:47:32;17.70;;;9.80;;
14774;SDS011;7479;47.042;15.160;2023-02-28T09:52:31;15.17;;;9.23;;
14774;SDS011;7479;47.042;15.160;2023-02-28T09:57:29;15.53;;;9.50;;
14774;SDS011;7479;47.042;15.160;2023-02-28T10:02:40;12.63;;;9.00;;
14774;SDS011;7479;47.042;15.160;2023-02-28T10:08:06;10.33;;;8.20;;
14774;SDS011;7479;47.042;15.160;2023-02-28T10:13:05;8.73;;;7.83;;
14774;SDS011;7479;47.042;15.160;2023-02-28T10:18:08;9.37;;;7.97;;
14774;SDS011;7479;47.042;15.160;2023-02-28T10:23:10;11.37;;;8.27;;
14774;SDS011;7479;47.042;15.160;2023-02-28T10:28:09;10.00;;;8.33;;
14774;SDS011;7479;47.042;15.160;2023-02-28T10:33:05;11.13;;;8.37;;
14774;SDS011;7479;47.042;15.160;2023-02-28T10:37:59;11.67;;;8.57;;
14774;SDS011;7479;47.042;15.160;2023-02-28T10:42:56;11.43;;;8.47;;
14774;SDS011;7479;47.042;15.160;2023-02-28T10:47:52;10.13;;;8.43;;
14774;SDS011;7479;47.042;15.160;2023-02-28T10:52:48;11.87;;;8.93;;
14774;SDS011;7479;47.042;15.160;2023-02-28T10:57:42;10.20;;;8.50;;
14774;SDS011;7479;47.042;15.160;2023-02-28T11:02:37;12.93;;;8.93;;
14774;SDS011;7479;47.042;15.160;2023-02-28T11:07:34;13.23;;;9.03;;
14774;SDS011;7479;47.042;15.160;2023-02-28T11:12:43;11.73;;;9.50;;
14774;SDS011;7479;47.042;15.160;2023-02-28T11:17:46;11.20;;;9.43;;
14774;SDS011;7479;47.042;15.160;2023-02-28T11:22:47;12.10;;;9.27;;
14774;SDS011;7479;47.042;15.160;2023-02-28T11:27:43;12.03;;;10.10;;
14774;SDS011;7479;47.042;15.160;2023-02-28T11:32:41;12.20;;;9.90;;
14774;SDS011;7479;47.042;15.160;2023-02-28T11:37:43;11.43;;;9.63;;
14774;SDS011;7479;47.042;15.160;2023-02-28T11:42:46;14.90;;;10.07;;
14774;SDS011;7479;47.042;15.160;2023-02-28T11:47:55;12.10;;;9.80;;
14774;SDS011;7479;47.042;15.160;2023-02-28T11:52:56;15.37;;;9.93;;
14774;SDS011;7479;47.042;15.160;2023-02-28T11:58:02;11.87;;;10.07;;
14774;SDS011;7479;47.042;15.160;2023-02-28T12:03:27;19.23;;;13.43;;
14774;SDS011;7479;47.042;15.160;2023-02-28T12:08:44;14.57;;;10.10;;
14774;SDS011;7479;47.042;15.160;2023-02-28T12:13:46;16.50;;;11.50;;
14774;SDS011;7479;47.042;15.160;2023-02-28T12:18:56;12.37;;;9.23;;
14774;SDS011;7479;47.042;15.160;2023-02-28T12:24:02;16.33;;;10.03;;
14774;SDS011;7479;47.042;15.160;2023-02-28T12:29:10;13.57;;;9.80;;
14774;SDS011;7479;47.042;15.160;2023-02-28T12:34:13;13.80;;;9.97;;
14774;SDS011;7479;47.042;15.160;2023-02-28T12:39:12;15.63;;;10.33;;
14774;SDS011;7479;47.042;15.160;2023-02-28T12:44:14;13.70;;;10.03;;
14774;SDS011;7479;47.042;15.160;2023-02-28T12:49:14;15.57;;;10.80;;
14774;SDS011;7479;47.042;15.160;2023-02-28T12:54:14;13.33;;;10.17;;
14774;SDS011;7479;47.042;15.160;2023-02-28T12:59:14;15.80;;;11.03;;
14774;SDS011;7479;47.042;15.160;2023-02-28T13:09:50;14.47;;;9.63;;
14774;SDS011;7479;47.042;15.160;2023-02-28T13:14:45;13.67;;;10.60;;
14774;SDS011;7479;47.042;15.160;2023-02-28T13:19:40;12.73;;;10.60;;
14774;SDS011;7479;47.042;15.160;2023-02-28T13:24:44;18.07;;;11.60;;
14774;SDS011;7479;47.042;15.160;2023-02-28T13:29:40;16.77;;;11.57;;
14774;SDS011;7479;47.042;15.160;2023-02-28T13:34:36;16.37;;;10.70;;
14774;SDS011;7479;47.042;15.160;2023-02-28T13:39:48;14.13;;;11.00;;
14774;SDS011;7479;47.042;15.160;2023-02-28T13:50:21;15.83;;;10.73;;
14774;SDS011;7479;47.042;15.160;2023-02-28T13:55:24;18.23;;;11.37;;
14774;SDS011;7479;47.042;15.160;2023-02-28T14:00:23;13.90;;;10.90;;
14774;SDS011;7479;47.042;15.160;2023-02-28T14:05:31;16.47;;;12.37;;
14774;SDS011;7479;47.042;15.160;2023-02-28T14:10:28;17.70;;;10.97;;
14774;SDS011;7479;47.042;15.160;2023-02-28T14:21:01;15.67;;;10.77;;
14774;SDS011;7479;47.042;15.160;2023-02-28T14:26:10;13.47;;;10.47;;
14774;SDS011;7479;47.042;15.160;2023-02-28T14:31:22;18.10;;;11.13;;
14774;SDS011;7479;47.042;15.160;2023-02-28T14:36:21;16.37;;;12.73;;
14774;SDS011;7479;47.042;15.160;2023-02-28T14:41:22;19.07;;;11.97;;
14774;SDS011;7479;47.042;15.160;2023-02-28T14:46:22;14.23;;;11.23;;
14774;SDS011;7479;47.042;15.160;2023-02-28T14:51:21;14.23;;;10.87;;
14774;SDS011;7479;47.042;15.160;2023-02-28T14:56:24;15.90;;;10.83;;
14774;SDS011;7479;47.042;15.160;2023-02-28T15:01:21;20.00;;;12.53;;
14774;SDS011;7479;47.042;15.160;2023-02-28T15:06:17;13.57;;;10.67;;
14774;SDS011;7479;47.042;15.160;2023-02-28T15:11:13;15.83;;;10.50;;
14774;SDS011;7479;47.042;15.160;2023-02-28T15:16:12;15.27;;;11.50;;
14774;SDS011;7479;47.042;15.160;2023-02-28T15:21:12;13.57;;;10.37;;
14774;SDS011;7479;47.042;15.160;2023-02-28T15:26:10;16.57;;;11.87;;
14774;SDS011;7479;47.042;15.160;2023-02-28T15:31:23;15.67;;;12.10;;
14774;SDS011;7479;47.042;15.160;2023-02-28T15:36:37;15.87;;;11.53;;
14774;SDS011;7479;47.042;15.160;2023-02-28T15:41:31;16.67;;;12.23;;
14774;SDS011;7479;47.042;15.160;2023-02-28T15:46:32;16.60;;;11.40;;
14774;SDS011;7479;47.042;15.160;2023-02-28T15:51:28;18.10;;;11.70;;
14774;SDS011;7479;47.042;15.160;2023-02-28T15:56:26;17.93;;;13.17;;
14774;SDS011;7479;47.042;15.160;2023-02-28T16:01:24;22.97;;;15.47;;
14774;SDS011;7479;47.042;15.160;2023-02-28T16:11:40;22.40;;;13.10;;
14774;SDS011;7479;47.042;15.160;2023-02-28T16:16:41;19.87;;;12.20;;
14774;SDS011;7479;47.042;15.160;2023-02-28T16:21:37;21.97;;;13.50;;
14774;SDS011;7479;47.042;15.160;2023-02-28T16:26:32;17.00;;;12.77;;
14774;SDS011;7479;47.042;15.160;2023-02-28T16:31:29;20.50;;;14.43;;
14774;SDS011;7479;47.042;15.160;2023-02-28T16:36:23;22.63;;;13.87;;
14774;SDS011;7479;47.042;15.160;2023-02-28T16:41:18;38.10;;;21.40;;
14774;SDS011;7479;47.042;15.160;2023-02-28T16:46:16;55.03;;;27.43;;
14774;SDS011;7479;47.042;15.160;2023-02-28T16:51:14;32.67;;;18.47;;
14774;SDS011;7479;47.042;15.160;2023-02-28T16:56:14;24.47;;;14.90;;
14774;SDS011;7479;47.042;15.160;2023-02-28T17:01:09;25.60;;;17.87;;
14774;SDS011;7479;47.042;15.160;2023-02-28T17:06:09;20.10;;;13.93;;
14774;SDS011;7479;47.042;15.160;2023-02-28T17:11:10;27.80;;;17.10;;
14774;SDS011;7479;47.042;15.160;2023-02-28T17:16:05;23.00;;;15.17;;
